GQPP

Details ICAO GQPP (NDB)
Name NOUADHIBOU
Region Mauritania
Timezone Africa/Nouakchott (UTC+0.0)
Plans Departing 22
Arriving 23
Stats Elevation 16 ft / 5 m (AMSL)
Location 20.932931° -17.029914°
Runways 1
Magnetic Variation 6.047° W
Sunrise 2017-12-12 07:36:55 UTC / 2017-12-12 07:36:55 Local
Sunset 2017-12-12 18:29:41 UTC / 2017-12-12 18:29:41 Local
Advertisement - Login to hide

Runways

ID Width Length Bearing (true) Bearing (mag) Surface Threshold Offset Overrun Length
02 148 ft / 45 m 7,995 ft / 2,437 m 14.33° 20.38° Asphalt 0 ft / 0 m 0 ft / 0 m
20 148 ft / 45 m 7,995 ft / 2,437 m 194.33° 200.38° Asphalt 0 ft / 0 m 0 ft / 0 m

Map

Weather


0- 5 10 15 20 25 30 35+ Temperature / ° C

Clouds and Precipitation
Forecast for 2017-12-13 00:00 UTC. Updated 19 minutes ago

Ground ~20,000 ft ~40,000 ft Winds

METAR

GQPP 122300Z 02018KT 8000 NSC 18/11 Q1017 NOSIG

TAF

TAF GQPP 121700Z 1218/1318 34014KT 8000 NSC TEMPO 1309/1313 04014KT

Frequencies

Tower 120.80 MHz TWR
Warning: Do not use this data for real-world aviation or navigation. No guarantee of current accuracy is given.